Aiken, SC

7:57 PM EDT on October 19, 2017 (GMT -0400)
Aiken Municipal

Weather History for KAIK - December, 2012

Change the Weather History Date:

Friday, December 21, 2012

  Actual Average Record
Temperature  
Mean Temperature 42 °F -  
Max Temperature 46 °F 59 °F 78 °F (2013)
Min Temperature 37 °F 34 °F 30 °F (2016)
Degree Days  
Heating Degree Days 24    
Moisture  
Dew Point 27 °F    
Average Humidity 56    
Maximum Humidity 70    
Minimum Humidity 45    
Precipitation  
Precipitation 0.00 in - - ()
Sea Level Pressure  
Sea Level Pressure 29.92 in    
Wind  
Wind Speed 18 mph (West)    
Max Wind Speed 28 mph    
Max Gust Speed 40 mph    
Visibility 10 miles    
Events      
Averages and records for this station are not official NWS values.
T = Trace of Precipitation, MM = Missing Value Source: NWS Daily Summary

Daily Weather History Graph

Daily Weather History Graph

Search for Another Location

Airport or City:

Trip Planner

Search our weather history database for the weather conditions in past years. The results will help you decide how hot, cold, wet, or windy it might be!

Date:

Astronomy

Dec. 21, 2012 Rise Set
Actual Time 7:27 AM EST 5:22 PM EST
Civil Twilight 6:59 AM EST 5:50 PM EST
Nautical Twilight 6:28 AM EST 6:21 PM EST
Astronomical Twilight 5:58 AM EST 6:51 PM EST
Moon 12:58 PM EST (12/21) 1:25 AM EST (12/21)
Length of Visible Light 10h 50m
Length of Day
9h 55m
Waxing Gibbous, 64% of the Moon is Illuminated
Dec 21
Waxing Gibbous
Dec 28
Full
Jan 4
Last Quarter
Jan 11
New
Jan 18
First Quarter

Hourly Weather History & Observations

Time (EST) Temp. Windchill Dew Point Humidity Pressure Visibility Wind Dir Wind Speed Gust Speed Precip Events Conditions
12:15 AM 44.6 °F 36.9 °F 32.0 °F 61% 29.84 in 10.0 mi WSW 18.4 mph 24.2 mph N/A   Clear
12:35 AM 44.6 °F 36.6 °F 32.0 °F 61% 29.84 in 10.0 mi WSW 19.6 mph 31.1 mph N/A   Clear
12:55 AM 44.6 °F 37.2 °F 32.0 °F 61% 29.84 in 10.0 mi West 17.3 mph 27.6 mph N/A   Clear
1:15 AM 42.8 °F 35.4 °F 32.0 °F 66% 29.83 in 10.0 mi WSW 15.0 mph 27.6 mph N/A   Scattered Clouds
1:35 AM 42.8 °F 35.1 °F 32.0 °F 66% 29.83 in 10.0 mi West 16.1 mph 25.3 mph N/A   Clear
1:55 AM 42.8 °F 34.5 °F 32.0 °F 66% 29.84 in 10.0 mi West 18.4 mph 26.5 mph N/A   Scattered Clouds
2:15 AM 42.8 °F 36.2 °F 32.0 °F 66% 29.84 in 10.0 mi West 12.7 mph 21.9 mph N/A   Scattered Clouds
2:55 AM 42.8 °F 35.8 °F 32.0 °F 66% 29.85 in 10.0 mi West 13.8 mph 28.8 mph N/A   Clear
3:15 AM 42.8 °F 36.6 °F 32.0 °F 66% 29.84 in 10.0 mi West 11.5 mph 23.0 mph N/A   Clear
3:35 AM 42.8 °F 35.4 °F 32.0 °F 66% 29.84 in 10.0 mi West 15.0 mph 27.6 mph N/A   Clear
3:55 AM 42.8 °F 36.6 °F 32.0 °F 66% 29.83 in 10.0 mi WSW 11.5 mph 16.1 mph N/A   Scattered Clouds
4:15 AM 42.8 °F 34.5 °F 32.0 °F 66% 29.83 in 10.0 mi WSW 18.4 mph 24.2 mph N/A   Mostly Cloudy
4:35 AM 42.8 °F 35.1 °F 32.0 °F 66% 29.83 in 10.0 mi WSW 16.1 mph 23.0 mph N/A   Mostly Cloudy
4:55 AM 42.8 °F 35.1 °F 30.2 °F 61% 29.83 in 10.0 mi West 16.1 mph 26.5 mph N/A   Scattered Clouds
5:15 AM 41.0 °F 32.5 °F 30.2 °F 65% 29.84 in 10.0 mi West 17.3 mph 25.3 mph N/A   Clear
5:35 AM 41.0 °F 31.1 °F 30.2 °F 65% 29.85 in 10.0 mi West 23.0 mph 34.5 mph N/A   Clear
5:55 AM 41.0 °F 33.1 °F 28.4 °F 61% 29.85 in 10.0 mi WSW 15.0 mph 32.2 mph N/A   Clear
6:15 AM 39.2 °F 28.7 °F 28.4 °F 65% 29.86 in 10.0 mi West 23.0 mph 29.9 mph N/A   Clear
6:35 AM 39.2 °F 30.8 °F 28.4 °F 65% 29.87 in 10.0 mi West 15.0 mph 29.9 mph N/A   Clear
6:55 AM 37.4 °F 26.6 °F 28.4 °F 70% 29.88 in 10.0 mi West 21.9 mph 32.2 mph N/A   Clear
7:15 AM 37.4 °F 28.5 °F 28.4 °F 70% 29.88 in 10.0 mi West 15.0 mph 28.8 mph N/A   Clear
7:35 AM 37.4 °F 27.8 °F 28.4 °F 70% 29.89 in 10.0 mi WSW 17.3 mph 24.2 mph N/A   Clear
7:55 AM 37.4 °F 28.9 °F 28.4 °F 70% 29.90 in 10.0 mi West 13.8 mph 19.6 mph N/A   Clear
8:15 AM 37.4 °F 28.5 °F 28.4 °F 70% 29.91 in 10.0 mi West 15.0 mph 27.6 mph N/A   Clear
8:35 AM 37.4 °F 26.9 °F 28.4 °F 70% 29.92 in 10.0 mi West 20.7 mph 29.9 mph N/A   Clear
8:55 AM 37.4 °F 27.5 °F 28.4 °F 70% 29.92 in 10.0 mi West 18.4 mph 32.2 mph N/A   Clear
9:15 AM 39.2 °F 28.5 °F 28.4 °F 65% 29.92 in 10.0 mi West 24.2 mph 33.4 mph N/A   Clear
9:35 AM 41.0 °F 30.7 °F 28.4 °F 61% 29.92 in 10.0 mi West 25.3 mph 34.5 mph N/A   Clear
9:55 AM 41.0 °F 32.2 °F 28.4 °F 61% 29.93 in 10.0 mi West 18.4 mph 35.7 mph N/A   Clear
10:15 AM 42.8 °F 33.8 °F 28.4 °F 57% 29.93 in 10.0 mi West 21.9 mph 29.9 mph N/A   Clear
10:35 AM 42.8 °F 33.1 °F 28.4 °F 57% 29.93 in 10.0 mi West 25.3 mph 33.4 mph N/A   Clear
10:55 AM 42.8 °F 33.5 °F 26.6 °F 53% 29.93 in 10.0 mi West 23.0 mph 34.5 mph N/A   Clear
11:15 AM 42.8 °F 33.3 °F 26.6 °F 53% 29.93 in 10.0 mi West 24.2 mph 33.4 mph N/A   Clear
11:35 AM 44.6 °F 37.2 °F 26.6 °F 49% 29.93 in 10.0 mi WNW 17.3 mph 33.4 mph N/A   Clear
11:55 AM 44.6 °F 35.9 °F 26.6 °F 49% 29.93 in 10.0 mi WNW 23.0 mph 38.0 mph N/A   Clear
12:15 PM 44.6 °F 35.5 °F 26.6 °F 49% 29.92 in 10.0 mi West 25.3 mph 33.4 mph N/A   Scattered Clouds
12:35 PM 44.6 °F 35.1 °F 26.6 °F 49% 29.92 in 10.0 mi West 27.6 mph 35.7 mph N/A   Clear
12:55 PM 46.4 °F 38.7 °F 26.6 °F 46% 29.91 in 10.0 mi West 20.7 mph 29.9 mph N/A   Clear
1:15 PM 44.6 °F 35.7 °F 26.6 °F 49% 29.91 in 10.0 mi West 24.2 mph 40.3 mph N/A   Clear
1:35 PM 46.4 °F 39.5 °F 28.4 °F 50% 29.91 in 10.0 mi West 17.3 mph 31.1 mph N/A   Clear
1:55 PM 46.4 °F 38.3 °F 26.6 °F 46% 29.91 in 10.0 mi West 23.0 mph 32.2 mph N/A   Clear
2:15 PM 46.4 °F 38.3 °F 28.4 °F 50% 29.91 in 10.0 mi West 23.0 mph 34.5 mph N/A   Clear
2:35 PM 46.4 °F 38.1 °F 26.6 °F 46% 29.91 in 10.0 mi West 24.2 mph 33.4 mph N/A   Scattered Clouds
2:55 PM 46.4 °F 38.5 °F 26.6 °F 46% 29.92 in 10.0 mi West 21.9 mph 31.1 mph N/A   Scattered Clouds
3:15 PM 46.4 °F 38.3 °F 26.6 °F 46% 29.92 in 10.0 mi West 23.0 mph 32.2 mph N/A   Scattered Clouds
3:35 PM 46.4 °F 38.1 °F 26.6 °F 46% 29.92 in 10.0 mi West 24.2 mph 33.4 mph N/A   Clear
3:55 PM 46.4 °F 38.7 °F 26.6 °F 46% 29.92 in 10.0 mi West 20.7 mph 31.1 mph N/A   Clear
4:15 PM 46.4 °F 38.1 °F 26.6 °F 46% 29.92 in 10.0 mi West 24.2 mph 31.1 mph N/A   Clear
4:35 PM 46.4 °F 37.7 °F 26.6 °F 46% 29.92 in 10.0 mi West 26.5 mph 36.8 mph N/A   Clear
5:15 PM 44.6 °F 36.1 °F 26.6 °F 49% 29.94 in 10.0 mi West 21.9 mph 28.8 mph N/A   Clear
5:35 PM 44.6 °F 37.2 °F 26.6 °F 49% 29.95 in 10.0 mi West 17.3 mph 25.3 mph N/A   Clear
5:55 PM 42.8 °F 35.4 °F 26.6 °F 53% 29.95 in 10.0 mi West 15.0 mph 20.7 mph N/A   Clear
6:15 PM 44.6 °F 37.8 °F 26.6 °F 49% 29.95 in 10.0 mi West 15.0 mph 20.7 mph N/A   Clear
6:35 PM 42.8 °F 35.1 °F 26.6 °F 53% 29.97 in 10.0 mi West 16.1 mph 21.9 mph N/A   Clear
6:55 PM 42.8 °F 35.1 °F 24.8 °F 49% 29.97 in 10.0 mi West 16.1 mph 27.6 mph N/A   Clear
7:15 PM 42.8 °F 34.8 °F 24.8 °F 49% 29.98 in 10.0 mi West 17.3 mph 23.0 mph N/A   Clear
7:55 PM 42.8 °F 36.2 °F 23.0 °F 46% 29.99 in 10.0 mi West 12.7 mph 26.5 mph N/A   Clear
8:15 PM 42.8 °F 35.4 °F 23.0 °F 46% 30.00 in 10.0 mi West 15.0 mph 24.2 mph N/A   Clear
8:35 PM 41.0 °F 32.8 °F 23.0 °F 49% 30.00 in 10.0 mi West 16.1 mph 25.3 mph N/A   Clear
8:55 PM 41.0 °F 32.2 °F 23.0 °F 49% 30.00 in 10.0 mi West 18.4 mph 23.0 mph N/A   Clear
9:15 PM 41.0 °F 31.9 °F 23.0 °F 49% 30.00 in 10.0 mi West 19.6 mph 25.3 mph N/A   Clear
9:35 PM 41.0 °F 31.9 °F 23.0 °F 49% 30.01 in 10.0 mi West 19.6 mph 28.8 mph N/A   Clear
9:55 PM 41.0 °F 33.5 °F 21.2 °F 45% 30.02 in 10.0 mi West 13.8 mph 25.3 mph N/A   Clear
10:15 PM 41.0 °F 32.5 °F 21.2 °F 45% 30.03 in 10.0 mi West 17.3 mph 23.0 mph N/A   Clear
10:35 PM 39.2 °F 30.5 °F 21.2 °F 49% 30.03 in 10.0 mi West 16.1 mph 21.9 mph N/A   Clear
10:55 PM 39.2 °F 30.8 °F 21.2 °F 49% 30.03 in 10.0 mi West 15.0 mph 23.0 mph N/A   Clear
11:15 PM 39.2 °F 32.0 °F 21.2 °F 49% 30.03 in 10.0 mi West 11.5 mph 23.0 mph N/A   Clear
11:35 PM 37.4 °F 30.3 °F 21.2 °F 52% 30.04 in 10.0 mi West 10.4 mph - N/A   Clear
11:55 PM 37.4 °F 29.3 °F 21.2 °F 52% 30.04 in 10.0 mi West 12.7 mph 21.9 mph N/A   Clear